Time;durP1;ratioP1;P1;durP2;ratioP2;P2;SDS_P1;SDS_P2;PMS_P1;PMS_P2;Temp;Humidity;BMP_temperature;BMP_pressure;BME280_temperature;BME280_humidity;BME280_pressure;Samples;Min_cycle;Max_cycle;Signal;HPM_P1;HPM_P2
2023/07/02 00:01:08;;;;;;;3.47;2.65;;;17.00;99.90;;;;;;4986323;28;20032;-85
2023/07/02 00:03:34;;;;;;;3.60;2.42;;;17.00;99.90;;;;;;4987162;28;20034;-85
2023/07/02 00:05:59;;;;;;;4.45;2.60;;;16.90;99.90;;;;;;4987989;28;20033;-85
2023/07/02 00:08:25;;;;;;;4.20;2.95;;;16.90;99.90;;;;;;4984792;28;20041;-85
2023/07/02 00:10:50;;;;;;;5.18;2.63;;;16.90;99.90;;;;;;4986500;28;20029;-85
2023/07/02 00:13:23;;;;;;;4.13;2.60;;;16.90;99.90;;;;;;5020769;23;20044;-83
2023/07/02 00:15:49;;;;;;;4.75;2.75;;;16.90;99.90;;;;;;4986502;28;20053;-82
2023/07/02 00:18:17;;;;;;;5.53;2.58;;;17.00;99.90;;;;;;4986431;28;20502;-83
2023/07/02 00:20:43;;;;;;;3.97;2.47;;;17.00;99.90;;;;;;4979964;28;20537;-84
2023/07/02 00:23:09;;;;;;;5.07;2.38;;;17.00;99.90;;;;;;4981341;28;20526;-83
2023/07/02 00:25:36;;;;;;;4.60;3.00;;;17.10;99.90;;;;;;4981272;28;20034;-83
2023/07/02 00:28:02;;;;;;;4.30;2.60;;;17.00;99.90;;;;;;4981832;28;20386;-82
2023/07/02 00:30:27;;;;;;;2.88;2.58;;;17.00;99.90;;;;;;4981202;28;20125;-83
2023/07/02 00:32:53;;;;;;;5.25;2.90;;;16.90;99.90;;;;;;4980744;28;20102;-83
2023/07/02 00:35:18;;;;;;;4.85;2.80;;;16.90;99.90;;;;;;4982058;28;20058;-85
2023/07/02 00:37:44;;;;;;;4.88;2.60;;;16.90;99.90;;;;;;4984416;28;20137;-82
2023/07/02 00:40:10;;;;;;;5.57;2.63;;;16.90;99.90;;;;;;4984621;28;20054;-82
2023/07/02 00:42:35;;;;;;;3.70;2.50;;;17.00;99.90;;;;;;4983461;28;20038;-83
2023/07/02 00:45:04;;;;;;;3.55;2.13;;;16.90;99.90;;;;;;4984152;28;20033;-83
2023/07/02 00:47:35;;;;;;;4.18;2.55;;;16.90;99.90;;;;;;4984413;28;20022;-83
2023/07/02 00:50:01;;;;;;;3.35;2.30;;;16.90;99.90;;;;;;4983254;28;20120;-84
2023/07/02 00:52:27;;;;;;;4.20;2.35;;;16.80;99.90;;;;;;4985601;28;20034;-83
2023/07/02 00:54:53;;;;;;;4.05;2.20;;;16.80;99.90;;;;;;4984667;28;20033;-84
2023/07/02 00:57:19;;;;;;;4.45;2.28;;;16.80;99.90;;;;;;4984619;28;20049;-82
2023/07/02 00:59:44;;;;;;;2.63;2.00;;;16.80;99.90;;;;;;4983771;28;20033;-83
2023/07/02 01:02:10;;;;;;;2.42;1.92;;;16.80;99.90;;;;;;4984283;28;20077;-81
2023/07/02 01:04:37;;;;;;;3.20;2.30;;;16.80;99.90;;;;;;4985655;28;20034;-81
2023/07/02 01:07:08;;;;;;;5.03;2.40;;;16.80;99.90;;;;;;4985877;28;20038;-81
2023/07/02 01:09:34;;;;;;;3.17;2.08;;;16.70;99.90;;;;;;4981797;28;20041;-81
2023/07/02 01:12:04;;;;;;;3.45;2.00;;;16.70;99.90;;;;;;4983615;28;20394;-83
2023/07/02 01:14:34;;;;;;;2.95;2.10;;;16.70;99.90;;;;;;4984456;28;20041;-81
2023/07/02 01:17:03;;;;;;;2.97;1.83;;;16.70;99.90;;;;;;4985142;28;20120;-82
2023/07/02 01:19:44;;;;;;;5.10;2.00;;;16.70;99.90;;;;;;4982990;28;20030;-81
2023/07/02 01:22:10;;;;;;;2.47;2.00;;;16.70;99.90;;;;;;4985922;28;20034;-81
2023/07/02 01:24:38;;;;;;;3.95;2.10;;;16.70;99.90;;;;;;4984835;28;20038;-81
2023/07/02 01:27:04;;;;;;;2.97;2.10;;;16.60;99.90;;;;;;4982741;28;20113;-81
2023/07/02 01:29:30;;;;;;;3.08;1.80;;;16.60;99.90;;;;;;4983446;28;20117;-82
2023/07/02 01:31:56;;;;;;;2.03;1.58;;;16.70;99.90;;;;;;4984454;28;20050;-81
2023/07/02 01:34:22;;;;;;;3.72;2.05;;;16.70;99.90;;;;;;4984160;28;20033;-81
2023/07/02 01:36:48;;;;;;;2.25;1.70;;;16.60;99.90;;;;;;4984084;28;20049;-81
2023/07/02 01:39:13;;;;;;;2.47;1.75;;;16.60;99.90;;;;;;4981604;28;20142;-83
2023/07/02 01:41:45;;;;;;;3.13;1.73;;;16.60;99.90;;;;;;4984197;28;20456;-82
2023/07/02 01:44:11;;;;;;;2.25;1.70;;;16.60;99.90;;;;;;4984748;28;20023;-81
2023/07/02 01:46:36;;;;;;;2.90;1.95;;;16.60;99.90;;;;;;4984492;28;20031;-81
2023/07/02 01:49:02;;;;;;;3.38;2.05;;;16.60;99.90;;;;;;4981531;28;20479;-81
2023/07/02 01:51:30;;;;;;;3.03;2.00;;;16.60;99.90;;;;;;4982846;28;20034;-82
2023/07/02 01:53:55;;;;;;;4.88;2.28;;;16.60;99.90;;;;;;4984257;28;20033;-82
2023/07/02 01:56:21;;;;;;;4.07;1.90;;;16.60;99.90;;;;;;4985240;28;20030;-82
2023/07/02 01:58:46;;;;;;;6.38;2.00;;;16.60;99.90;;;;;;4983798;28;20049;-81
2023/07/02 02:01:12;;;;;;;3.45;1.95;;;16.50;99.90;;;;;;4984977;28;20034;-81
2023/07/02 02:03:37;;;;;;;2.90;2.20;;;16.50;99.90;;;;;;4984104;28;20026;-82
2023/07/02 02:06:03;;;;;;;4.75;1.98;;;16.50;99.90;;;;;;4984369;28;20026;-81
2023/07/02 02:08:29;;;;;;;2.38;1.83;;;16.50;99.90;;;;;;4983814;28;20140;-81
2023/07/02 02:10:54;;;;;;;2.97;2.00;;;16.50;99.90;;;;;;4982767;28;20027;-83
2023/07/02 02:13:20;;;;;;;4.18;2.28;;;16.50;99.90;;;;;;4983847;28;20037;-81
2023/07/02 02:15:45;;;;;;;2.63;1.80;;;16.50;99.90;;;;;;4985043;28;20030;-82
2023/07/02 02:18:11;;;;;;;2.47;1.90;;;16.40;99.90;;;;;;4984507;28;20041;-82
2023/07/02 02:20:39;;;;;;;2.60;2.00;;;16.40;99.90;;;;;;4983272;28;20101;-82
2023/07/02 02:23:05;;;;;;;3.00;1.92;;;16.40;99.90;;;;;;4984074;28;20030;-81
2023/07/02 02:25:30;;;;;;;2.45;2.08;;;16.40;99.90;;;;;;4985081;28;20159;-81
2023/07/02 02:27:56;;;;;;;2.97;2.00;;;16.40;99.90;;;;;;4985225;28;20379;-81
2023/07/02 02:30:21;;;;;;;2.95;1.90;;;16.40;99.90;;;;;;4984249;28;20148;-83
2023/07/02 02:32:47;;;;;;;2.60;1.92;;;16.40;99.90;;;;;;4981489;28;20037;-82
2023/07/02 02:35:13;;;;;;;2.65;2.00;;;16.40;99.90;;;;;;4983250;28;20149;-82
2023/07/02 02:37:39;;;;;;;3.70;2.00;;;16.40;99.90;;;;;;4983642;28;20131;-81
2023/07/02 02:40:07;;;;;;;5.93;2.10;;;16.50;99.90;;;;;;4983021;28;20049;-82
2023/07/02 02:42:32;;;;;;;2.75;2.00;;;16.50;99.90;;;;;;4983076;28;20042;-81
2023/07/02 02:44:58;;;;;;;2.50;2.20;;;16.50;99.90;;;;;;4984429;28;20363;-82
2023/07/02 02:47:23;;;;;;;3.55;2.00;;;16.40;99.90;;;;;;4984028;28;20085;-83
2023/07/02 02:49:49;;;;;;;3.88;2.00;;;16.50;99.90;;;;;;4983589;28;20054;-81
2023/07/02 02:52:15;;;;;;;4.80;2.17;;;16.50;99.90;;;;;;4983449;28;20098;-83
2023/07/02 02:54:41;;;;;;;3.35;2.00;;;16.50;99.90;;;;;;4983399;28;20034;-82
2023/07/02 02:57:06;;;;;;;3.40;2.03;;;16.60;99.90;;;;;;4982724;28;20034;-82
2023/07/02 02:59:32;;;;;;;2.78;2.38;;;16.60;99.90;;;;;;4981846;28;20915;-82
2023/07/02 03:01:57;;;;;;;3.63;2.05;;;16.60;99.90;;;;;;4982557;28;20691;-82
2023/07/02 03:04:26;;;;;;;3.05;2.13;;;16.60;99.90;;;;;;4983270;28;20037;-82
2023/07/02 03:06:55;;;;;;;4.60;2.60;;;16.70;99.90;;;;;;4983050;28;20026;-81
2023/07/02 03:09:21;;;;;;;7.65;3.08;;;16.50;99.90;;;;;;4982515;28;20042;-81
2023/07/02 03:11:47;;;;;;;9.00;2.85;;;16.10;99.90;;;;;;4981932;28;20026;-82
2023/07/02 03:14:14;;;;;;;4.78;2.90;;;15.80;99.90;;;;;;4982171;28;20120;-80
2023/07/02 03:16:40;;;;;;;4.18;3.00;;;15.40;99.90;;;;;;4981873;28;20027;-82
2023/07/02 03:19:06;;;;;;;6.22;3.03;;;15.20;99.90;;;;;;4980891;28;20111;-82
2023/07/02 03:21:32;;;;;;;7.75;3.20;;;15.10;99.90;;;;;;4982030;28;20046;-81
2023/07/02 03:23:57;;;;;;;7.95;3.15;;;14.90;99.90;;;;;;4982257;28;20038;-82
2023/07/02 03:26:23;;;;;;;7.40;3.47;;;14.70;99.90;;;;;;4981988;28;20030;-81
2023/07/02 03:28:49;;;;;;;5.65;3.58;;;14.60;99.90;;;;;;4980805;28;20034;-80
2023/07/02 03:31:14;;;;;;;6.97;3.45;;;14.50;99.90;;;;;;4980216;28;20037;-83
2023/07/02 03:33:40;;;;;;;5.35;3.42;;;14.50;99.90;;;;;;4980177;28;20030;-81
2023/07/02 03:36:06;;;;;;;5.85;3.15;;;14.50;99.90;;;;;;4980946;28;20066;-81
2023/07/02 03:38:32;;;;;;;5.45;3.67;;;14.50;99.90;;;;;;4963803;28;20034;-81
2023/07/02 03:40:57;;;;;;;5.20;3.10;;;14.50;99.90;;;;;;4979042;28;20041;-83
2023/07/02 03:43:24;;;;;;;6.38;3.40;;;14.50;99.90;;;;;;4981368;28;20030;-81
2023/07/02 03:45:51;;;;;;;6.20;3.20;;;14.50;99.90;;;;;;4981346;28;20113;-82
2023/07/02 03:48:16;;;;;;;6.00;3.38;;;14.50;99.90;;;;;;4980911;28;20022;-82
2023/07/02 03:50:42;;;;;;;14.48;2.90;;;14.40;99.90;;;;;;4979045;28;20038;-82
2023/07/02 03:53:08;;;;;;;6.55;3.25;;;14.50;99.90;;;;;;4979493;28;20033;-82
2023/07/02 03:55:33;;;;;;;6.30;2.90;;;14.50;99.90;;;;;;4980719;28;20022;-81
2023/07/02 03:57:59;;;;;;;7.28;3.55;;;14.50;99.90;;;;;;4980058;28;20041;-82
2023/07/02 04:00:25;;;;;;;6.22;3.35;;;14.60;99.90;;;;;;4979092;28;20053;-82
2023/07/02 04:02:50;;;;;;;7.55;3.08;;;14.60;99.90;;;;;;4979271;28;20097;-81
2023/07/02 04:05:16;;;;;;;5.25;3.08;;;14.60;99.90;;;;;;4978708;28;20026;-82
2023/07/02 04:07:41;;;;;;;4.63;3.17;;;14.60;99.90;;;;;;4978231;28;20031;-84
2023/07/02 04:10:07;;;;;;;7.28;3.45;;;14.60;99.90;;;;;;4978658;28;20116;-81
2023/07/02 04:12:33;;;;;;;8.63;3.83;;;14.50;99.90;;;;;;4978310;28;20038;-81
2023/07/02 04:14:59;;;;;;;3.65;3.03;;;14.50;99.90;;;;;;4981216;28;20049;-81
2023/07/02 04:17:24;;;;;;;6.55;3.20;;;14.50;99.90;;;;;;4981671;28;20038;-81
2023/07/02 04:19:50;;;;;;;5.85;3.08;;;14.50;99.90;;;;;;4980635;28;20030;-81
2023/07/02 04:22:15;;;;;;;5.68;3.38;;;14.50;99.90;;;;;;4980360;28;20118;-81
2023/07/02 04:24:41;;;;;;;4.78;3.15;;;14.50;99.90;;;;;;4982767;28;20073;-81
2023/07/02 04:27:07;;;;;;;4.72;2.97;;;14.50;99.90;;;;;;4981904;28;20811;-82
2023/07/02 04:29:32;;;;;;;7.28;3.30;;;14.50;99.90;;;;;;4981335;28;20023;-80
2023/07/02 04:31:58;;;;;;;5.55;3.55;;;14.60;99.90;;;;;;4980727;28;20046;-83
2023/07/02 04:34:24;;;;;;;5.28;2.92;;;14.60;99.90;;;;;;4980311;28;20034;-81
2023/07/02 04:36:49;;;;;;;6.70;3.05;;;14.60;99.90;;;;;;4981052;28;20042;-81
2023/07/02 04:39:15;;;;;;;5.97;2.90;;;14.70;99.90;;;;;;4981372;28;20050;-81
2023/07/02 04:41:40;;;;;;;6.70;3.22;;;14.70;99.90;;;;;;4981679;28;20061;-81
2023/07/02 04:44:06;;;;;;;7.95;3.70;;;14.70;99.90;;;;;;4979357;28;20422;-81
2023/07/02 04:46:32;;;;;;;6.32;3.25;;;14.70;99.90;;;;;;4979689;28;20046;-81
2023/07/02 04:48:57;;;;;;;11.32;3.40;;;14.70;99.90;;;;;;4980753;28;20034;-82
2023/07/02 04:51:23;;;;;;;7.30;3.10;;;14.70;99.90;;;;;;4982097;28;20041;-82
2023/07/02 04:53:48;;;;;;;8.05;3.22;;;14.70;99.90;;;;;;4982996;28;20057;-81
2023/07/02 04:56:14;;;;;;;4.53;3.13;;;14.70;99.90;;;;;;4979913;28;20066;-82
2023/07/02 04:58:40;;;;;;;5.45;2.85;;;14.70;99.90;;;;;;4982347;28;20046;-83
2023/07/02 05:01:05;;;;;;;7.65;3.30;;;14.70;99.90;;;;;;4982649;28;20871;-81
2023/07/02 05:03:31;;;;;;;4.75;3.30;;;14.70;99.90;;;;;;4982142;28;20038;-83
2023/07/02 05:05:56;;;;;;;4.35;2.78;;;14.80;99.90;;;;;;4981249;28;21353;-83
2023/07/02 05:08:22;;;;;;;4.90;3.05;;;14.70;99.90;;;;;;4981473;28;20084;-82
2023/07/02 05:10:47;;;;;;;5.10;3.28;;;14.70;99.90;;;;;;4980093;28;20105;-83
2023/07/02 05:13:13;;;;;;;5.07;3.25;;;14.70;99.90;;;;;;4978546;28;21047;-88
2023/07/02 05:15:39;;;;;;;4.85;3.15;;;14.70;99.90;;;;;;4977002;28;20038;-81
2023/07/02 05:18:06;;;;;;;5.72;3.50;;;14.70;99.90;;;;;;4978716;28;20129;-81
2023/07/02 05:20:32;;;;;;;4.78;3.20;;;14.70;99.90;;;;;;4979734;28;20061;-82
2023/07/02 05:22:57;;;;;;;4.68;3.17;;;14.70;99.90;;;;;;4981270;28;21365;-80
2023/07/02 05:25:23;;;;;;;8.18;3.63;;;14.70;99.90;;;;;;4983980;28;20026;-81
2023/07/02 05:27:48;;;;;;;4.35;3.00;;;14.80;99.90;;;;;;4982990;28;20030;-83
2023/07/02 05:30:14;;;;;;;5.32;3.08;;;14.80;99.90;;;;;;4982372;28;20030;-83
2023/07/02 05:32:40;;;;;;;7.47;3.33;;;14.90;99.90;;;;;;4981619;28;20422;-80
2023/07/02 05:35:08;;;;;;;7.28;3.13;;;14.90;99.90;;;;;;4982478;28;20149;-80
2023/07/02 05:37:33;;;;;;;6.82;3.58;;;15.00;99.90;;;;;;4978324;28;20046;-81
2023/07/02 05:39:59;;;;;;;5.18;3.30;;;15.00;99.90;;;;;;4979625;28;20032;-82
2023/07/02 05:42:24;;;;;;;4.50;2.95;;;15.10;99.90;;;;;;4981849;28;20163;-80
2023/07/02 05:44:50;;;;;;;5.82;3.05;;;15.10;99.90;;;;;;4982147;28;20030;-74
2023/07/02 05:47:16;;;;;;;4.90;3.15;;;15.20;99.90;;;;;;4980396;28;20064;-82
2023/07/02 05:49:42;;;;;;;5.55;3.75;;;15.40;99.90;;;;;;4980709;28;20035;-80
2023/07/02 05:52:08;;;;;;;6.50;3.30;;;15.50;99.90;;;;;;4984045;28;20038;-84
2023/07/02 05:54:33;;;;;;;5.20;3.10;;;15.60;99.90;;;;;;4983354;28;20040;-82
2023/07/02 05:56:59;;;;;;;5.07;3.13;;;15.70;99.90;;;;;;4980427;28;20046;-83
2023/07/02 05:59:24;;;;;;;5.95;3.28;;;15.70;99.90;;;;;;4981537;28;20039;-83
2023/07/02 06:01:50;;;;;;;6.30;3.20;;;15.80;99.90;;;;;;4978246;28;20035;-82
2023/07/02 06:04:16;;;;;;;4.97;3.28;;;15.80;99.90;;;;;;4981123;28;20030;-82
2023/07/02 06:06:41;;;;;;;6.55;3.15;;;15.80;99.90;;;;;;4981980;28;20029;-82
2023/07/02 06:09:07;;;;;;;6.50;3.13;;;15.70;99.90;;;;;;4979713;28;20035;-83
2023/07/02 06:11:32;;;;;;;6.35;3.17;;;15.70;99.90;;;;;;4980599;28;20133;-81
2023/07/02 06:13:58;;;;;;;4.75;3.20;;;15.70;99.90;;;;;;4978372;28;20030;-83
2023/07/02 06:16:25;;;;;;;6.13;3.15;;;15.70;99.90;;;;;;4979144;28;20415;-80
2023/07/02 06:18:51;;;;;;;4.05;3.17;;;15.60;99.90;;;;;;4979739;28;20035;-81
2023/07/02 06:21:16;;;;;;;3.85;2.80;;;15.60;99.90;;;;;;4980808;28;20026;-83
2023/07/02 06:23:45;;;;;;;6.80;3.35;;;15.60;99.90;;;;;;4979634;28;20034;-80
2023/07/02 06:26:10;;;;;;;5.68;3.53;;;15.50;99.90;;;;;;4975949;28;20042;-83
2023/07/02 06:28:38;;;;;;;6.93;3.90;;;15.50;99.90;;;;;;4980944;28;20030;-87
2023/07/02 06:31:04;;;;;;;6.90;3.50;;;15.50;99.90;;;;;;4977255;28;20499;-81
2023/07/02 06:33:29;;;;;;;5.80;3.50;;;15.50;99.90;;;;;;4976821;28;20038;-83
2023/07/02 06:35:55;;;;;;;6.63;3.60;;;15.40;99.90;;;;;;4979695;28;20035;-81
2023/07/02 06:38:20;;;;;;;6.68;3.22;;;15.50;99.90;;;;;;4979919;28;20073;-81
2023/07/02 06:40:46;;;;;;;4.93;3.15;;;15.50;99.90;;;;;;4977271;28;20066;-82
2023/07/02 06:43:11;;;;;;;4.47;2.72;;;15.50;99.90;;;;;;4978920;28;20042;-81
2023/07/02 06:45:37;;;;;;;5.28;2.85;;;15.60;99.90;;;;;;4980650;28;20022;-82
2023/07/02 06:48:02;;;;;;;4.28;2.80;;;15.60;99.90;;;;;;4980768;28;20809;-82
2023/07/02 06:50:28;;;;;;;7.80;3.10;;;15.60;99.90;;;;;;4977144;28;20125;-81
2023/07/02 06:52:54;;;;;;;8.05;2.95;;;15.60;99.90;;;;;;4973429;28;20039;-80
2023/07/02 06:55:19;;;;;;;5.68;3.28;;;15.70;99.90;;;;;;4971593;28;20030;-83
2023/07/02 06:57:46;;;;;;;6.25;2.95;;;15.60;99.90;;;;;;4973642;28;20050;-81
2023/07/02 07:00:13;;;;;;;4.32;2.80;;;15.50;99.90;;;;;;4975654;28;20508;-83
2023/07/02 07:02:38;;;;;;;6.43;3.17;;;15.50;99.90;;;;;;4976408;28;20053;-83
2023/07/02 07:05:04;;;;;;;6.55;3.30;;;15.60;99.90;;;;;;4973979;28;20537;-86
2023/07/02 07:07:30;;;;;;;6.40;3.65;;;15.60;99.90;;;;;;4977766;28;20034;-79
2023/07/02 07:09:56;;;;;;;5.03;3.30;;;15.60;99.90;;;;;;4974525;28;20145;-84
2023/07/02 07:12:24;;;;;;;5.93;3.70;;;15.60;99.90;;;;;;4981059;28;20164;-84
2023/07/02 07:14:49;;;;;;;5.38;3.20;;;15.60;99.90;;;;;;4980118;28;20038;-82
2023/07/02 07:17:15;;;;;;;6.75;3.03;;;15.60;99.90;;;;;;4982198;28;20100;-83
2023/07/02 07:19:43;;;;;;;6.20;3.35;;;15.50;99.90;;;;;;4980215;28;20090;-82
2023/07/02 07:22:11;;;;;;;4.70;3.35;;;15.50;99.90;;;;;;4978827;28;20023;-82
2023/07/02 07:24:37;;;;;;;7.70;3.60;;;15.50;99.90;;;;;;4978498;28;20022;-83
2023/07/02 07:27:03;;;;;;;7.45;3.80;;;15.50;99.90;;;;;;4975944;28;20135;-82
2023/07/02 07:29:28;;;;;;;5.68;3.72;;;15.40;99.90;;;;;;5016185;22;20081;-86
2023/07/02 07:31:54;;;;;;;5.00;3.45;;;15.40;99.90;;;;;;4979880;28;21438;-84
2023/07/02 07:34:19;;;;;;;4.13;3.15;;;15.30;99.90;;;;;;4976867;28;20949;-85
2023/07/02 07:36:45;;;;;;;6.22;3.50;;;15.40;99.90;;;;;;4974731;28;20278;-87
2023/07/02 07:39:11;;;;;;;8.05;4.25;;;15.40;99.90;;;;;;4975076;28;20474;-86
2023/07/02 07:41:36;;;;;;;5.15;3.30;;;15.30;99.90;;;;;;4966587;28;20588;-86
2023/07/02 07:44:02;;;;;;;5.07;4.00;;;15.40;99.90;;;;;;4967379;28;20042;-83
2023/07/02 07:46:27;;;;;;;5.97;3.92;;;15.40;99.90;;;;;;4968507;28;20018;-80
2023/07/02 07:48:53;;;;;;;5.38;3.70;;;15.40;99.90;;;;;;4969751;28;20031;-84
2023/07/02 07:51:18;;;;;;;6.22;3.95;;;15.50;99.90;;;;;;4967311;28;20905;-87
2023/07/02 07:53:44;;;;;;;4.68;3.78;;;15.50;99.90;;;;;;4971893;28;20514;-86
2023/07/02 07:56:10;;;;;;;6.63;3.80;;;15.60;99.90;;;;;;4975592;28;20129;-86
2023/07/02 07:58:35;;;;;;;6.55;3.80;;;15.70;99.90;;;;;;4974129;28;20581;-85
2023/07/02 08:01:01;;;;;;;5.28;3.75;;;15.80;99.90;;;;;;4973394;28;20037;-85
2023/07/02 08:03:26;;;;;;;4.75;3.72;;;15.90;99.90;;;;;;4972188;28;20041;-85
2023/07/02 08:05:52;;;;;;;6.15;3.95;;;16.10;99.90;;;;;;4974422;28;20076;-85
2023/07/02 08:08:17;;;;;;;6.10;3.47;;;16.30;99.90;;;;;;4977205;28;20038;-84
2023/07/02 08:10:45;;;;;;;6.75;3.20;;;16.40;99.90;;;;;;4978032;28;20117;-83
2023/07/02 08:13:10;;;;;;;4.63;3.30;;;16.50;99.90;;;;;;4976147;28;20478;-85
2023/07/02 08:15:37;;;;;;;5.15;2.90;;;16.60;99.90;;;;;;4975955;28;20165;-85
2023/07/02 08:18:03;;;;;;;5.65;2.67;;;16.60;99.90;;;;;;4973629;28;20053;-85
2023/07/02 08:20:29;;;;;;;3.15;2.55;;;16.60;99.90;;;;;;4975815;28;21256;-84
2023/07/02 08:22:54;;;;;;;3.97;2.85;;;16.70;99.90;;;;;;4974525;28;20034;-86
2023/07/02 08:25:21;;;;;;;7.03;3.40;;;16.60;99.90;;;;;;4973689;28;20373;-86
2023/07/02 08:27:47;;;;;;;4.85;2.90;;;16.60;99.90;;;;;;4971637;28;20144;-86
2023/07/02 08:30:13;;;;;;;4.70;2.80;;;16.60;99.90;;;;;;4974384;28;20045;-86
2023/07/02 08:32:38;;;;;;;4.85;2.85;;;16.70;99.90;;;;;;4970617;28;20138;-84
2023/07/02 08:35:04;;;;;;;4.43;2.78;;;16.80;99.90;;;;;;4973077;28;20030;-85
2023/07/02 08:37:29;;;;;;;4.40;2.90;;;16.80;99.90;;;;;;4974734;28;20127;-85
2023/07/02 08:39:55;;;;;;;3.13;2.80;;;16.80;99.90;;;;;;4972350;28;20037;-84
2023/07/02 08:42:21;;;;;;;4.95;3.30;;;16.80;99.90;;;;;;4973141;28;20100;-83
2023/07/02 08:44:47;;;;;;;4.70;3.10;;;16.80;99.90;;;;;;4974049;28;20049;-84
2023/07/02 08:47:13;;;;;;;5.10;3.10;;;16.70;99.90;;;;;;4972261;28;20041;-84
2023/07/02 08:49:39;;;;;;;3.30;2.67;;;16.70;99.90;;;;;;4971381;28;20034;-84
2023/07/02 08:52:05;;;;;;;3.63;2.60;;;16.70;99.90;;;;;;4973928;28;20058;-86
2023/07/02 08:54:31;;;;;;;3.28;2.50;;;16.70;99.90;;;;;;4973957;28;20035;-84
2023/07/02 08:56:57;;;;;;;4.55;2.42;;;16.70;99.90;;;;;;4972503;28;20049;-85
2023/07/02 08:59:23;;;;;;;4.18;2.50;;;16.70;99.90;;;;;;4978347;28;20674;-86
2023/07/02 09:01:51;;;;;;;4.05;2.33;;;16.60;99.90;;;;;;4974174;28;20255;-86
2023/07/02 09:04:25;;;;;;;4.65;3.00;;;16.60;99.90;;;;;;4979473;28;20605;-86
2023/07/02 09:07:08;;;;;;;4.60;2.15;;;16.50;99.90;;;;;;4976389;28;20030;-86
2023/07/02 09:09:47;;;;;;;4.10;2.55;;;16.60;99.90;;;;;;4977324;28;20072;-86
2023/07/02 09:12:26;;;;;;;4.75;2.30;;;16.60;99.90;;;;;;4977490;28;20113;-85
2023/07/02 09:17:50;;;;;;;4.05;2.60;;;16.60;99.90;;;;;;5534130;23;20133;-87
2023/07/02 09:20:15;;;;;;;3.85;2.60;;;16.70;99.90;;;;;;4992546;28;20044;-85
2023/07/02 09:22:41;;;;;;;4.90;2.53;;;16.80;99.90;;;;;;4996199;28;20038;-84
2023/07/02 09:25:07;;;;;;;5.38;2.67;;;16.90;99.90;;;;;;4993953;28;20045;-84
2023/07/02 09:27:36;;;;;;;4.90;2.45;;;16.90;99.90;;;;;;4987223;28;20478;-84
2023/07/02 09:30:10;;;;;;;5.53;3.00;;;16.70;99.90;;;;;;4976911;28;20474;-85
2023/07/02 09:32:35;;;;;;;5.30;2.70;;;16.70;99.90;;;;;;5021939;23;20055;-89
2023/07/02 09:35:01;;;;;;;5.50;3.20;;;16.70;99.90;;;;;;4980473;28;20463;-86
2023/07/02 09:37:27;;;;;;;3.78;2.90;;;16.70;99.90;;;;;;4993162;28;20042;-88
2023/07/02 09:39:55;;;;;;;4.10;2.80;;;16.70;99.90;;;;;;4990535;28;20033;-88
2023/07/02 09:42:22;;;;;;;4.18;2.90;;;16.70;99.90;;;;;;4990234;28;20117;-86
2023/07/02 09:44:51;;;;;;;3.75;2.72;;;16.80;99.90;;;;;;4990813;28;20094;-83
2023/07/02 09:47:19;;;;;;;4.55;3.13;;;16.80;99.90;;;;;;4993308;28;20488;-84
2023/07/02 09:50:03;;;;;;;4.07;2.70;;;16.80;99.90;;;;;;4993882;28;20125;-86
2023/07/02 09:52:29;;;;;;;5.05;3.00;;;16.90;99.90;;;;;;4989100;28;20045;-85
2023/07/02 09:54:55;;;;;;;4.28;2.85;;;16.90;99.90;;;;;;4994372;28;20030;-86
2023/07/02 09:57:20;;;;;;;5.15;2.90;;;17.00;99.90;;;;;;4989903;28;20129;-90
2023/07/02 09:59:46;;;;;;;4.10;2.85;;;17.10;99.90;;;;;;4994306;28;20026;-84
2023/07/02 10:02:13;;;;;;;4.13;2.92;;;17.10;99.90;;;;;;4990340;28;20030;-83
2023/07/02 10:04:45;;;;;;;5.03;2.85;;;17.00;99.90;;;;;;4991353;28;20030;-84
2023/07/02 10:07:11;;;;;;;4.95;3.17;;;17.20;99.90;;;;;;4990022;28;20040;-83
2023/07/02 10:09:45;;;;;;;4.50;3.08;;;17.20;99.90;;;;;;4990698;28;20035;-83
2023/07/02 10:12:21;;;;;;;3.97;3.15;;;17.20;99.90;;;;;;4991702;28;20049;-83
2023/07/02 10:14:48;;;;;;;5.78;3.25;;;17.30;99.90;;;;;;4992457;28;20034;-83
2023/07/02 10:17:40;;;;;;;4.13;2.92;;;17.40;99.90;;;;;;4991755;28;20076;-84
2023/07/02 10:20:13;;;;;;;4.45;3.08;;;17.60;99.90;;;;;;4989767;28;20050;-83
2023/07/02 10:22:47;;;;;;;4.18;2.97;;;17.70;99.90;;;;;;4989105;28;20108;-83
2023/07/02 10:25:27;;;;;;;4.67;3.40;;;17.90;99.90;;;;;;4987973;28;20034;-86
2023/07/02 10:27:52;;;;;;;5.25;3.40;;;18.10;99.90;;;;;;4988298;28;20034;-85
2023/07/02 10:30:18;;;;;;;5.05;3.25;;;18.20;99.90;;;;;;4984113;28;20050;-87
2023/07/02 10:32:43;;;;;;;5.22;3.28;;;18.20;99.90;;;;;;4987071;28;20584;-86
2023/07/02 10:35:18;;;;;;;6.50;4.05;;;18.20;99.90;;;;;;4985753;28;20042;-88
2023/07/02 10:37:45;;;;;;;6.72;3.85;;;18.30;99.90;;;;;;4963679;28;20047;-85
2023/07/02 10:40:11;;;;;;;7.13;4.78;;;18.40;99.90;;;;;;4987001;28;20057;-84
2023/07/02 10:42:51;;;;;;;6.75;4.90;;;18.40;99.90;;;;;;4988119;28;20046;-84
2023/07/02 10:45:17;;;;;;;6.72;4.55;;;18.30;99.90;;;;;;4988541;28;20686;-85
2023/07/02 10:47:42;;;;;;;8.45;4.63;;;18.50;99.90;;;;;;4986090;28;20041;-84
2023/07/02 10:50:19;;;;;;;7.20;4.60;;;18.70;99.90;;;;;;4987481;28;20042;-87
2023/07/02 10:52:45;;;;;;;8.40;5.75;;;18.80;99.90;;;;;;4986542;28;20037;-85
2023/07/02 10:55:15;;;;;;;7.68;4.72;;;18.90;99.90;;;;;;4987003;28;20104;-86
2023/07/02 10:57:41;;;;;;;9.48;4.50;;;19.00;99.90;;;;;;4984168;28;21723;-86
2023/07/02 11:00:08;;;;;;;8.27;5.10;;;19.10;99.90;;;;;;4986996;28;20045;-86
2023/07/02 11:02:39;;;;;;;10.40;5.22;;;19.40;99.90;;;;;;4981954;28;20040;-85
2023/07/02 11:05:06;;;;;;;7.43;4.75;;;19.40;99.90;;;;;;4987637;28;20038;-85
2023/07/02 11:07:34;;;;;;;12.00;4.93;;;19.70;99.90;;;;;;4985288;28;20085;-86
2023/07/02 11:10:00;;;;;;;7.78;5.10;;;20.00;99.90;;;;;;4987636;28;20029;-86
2023/07/02 11:12:29;;;;;;;8.80;5.28;;;20.10;99.90;;;;;;4985457;28;20057;-87
2023/07/02 11:14:55;;;;;;;8.82;5.40;;;20.10;99.90;;;;;;4984485;28;20034;-87
2023/07/02 11:17:26;;;;;;;10.10;5.60;;;20.10;99.90;;;;;;4983697;28;20050;-88
2023/07/02 11:19:52;;;;;;;13.00;7.20;;;20.20;99.90;;;;;;4968601;28;20580;-75
2023/07/02 11:22:18;;;;;;;11.85;7.43;;;20.50;99.90;;;;;;4985397;28;20386;-74
2023/07/02 11:24:44;;;;;;;12.30;7.38;;;20.60;99.90;;;;;;4984423;28;20085;-74
2023/07/02 11:27:20;;;;;;;12.27;7.22;;;20.70;99.90;;;;;;4982230;28;20052;-75
2023/07/02 11:29:45;;;;;;;13.10;8.30;;;20.80;99.90;;;;;;4984072;28;20036;-75
2023/07/02 11:32:12;;;;;;;11.48;7.50;;;20.80;99.90;;;;;;4980069;28;20042;-75
2023/07/02 11:34:38;;;;;;;14.27;8.90;;;21.00;99.90;;;;;;4983915;28;20030;-75
2023/07/02 11:37:04;;;;;;;12.70;8.50;;;21.40;99.90;;;;;;4981917;28;20577;-74
2023/07/02 11:39:31;;;;;;;12.93;8.60;;;22.00;99.90;;;;;;4981787;28;20543;-75
2023/07/02 11:41:56;;;;;;;12.95;8.65;;;22.40;99.90;;;;;;4984493;28;20027;-78
2023/07/02 11:44:22;;;;;;;12.57;8.32;;;22.70;99.90;;;;;;4985479;28;20085;-78
2023/07/02 11:46:48;;;;;;;14.15;8.85;;;22.70;99.90;;;;;;4986676;28;20397;-79
2023/07/02 11:49:14;;;;;;;16.67;8.85;;;22.60;99.90;;;;;;4990046;28;20094;-79
2023/07/02 11:51:40;;;;;;;16.33;8.98;;;22.50;99.90;;;;;;4989209;28;20120;-83
2023/07/02 11:54:06;;;;;;;12.05;7.82;;;22.60;99.90;;;;;;4984800;28;21397;-75
2023/07/02 11:56:32;;;;;;;11.90;8.93;;;23.00;99.90;;;;;;4983099;28;20038;-77
2023/07/02 11:58:58;;;;;;;12.02;8.32;;;23.10;99.90;;;;;;4984367;28;20038;-79
2023/07/02 12:01:23;;;;;;;13.02;8.70;;;23.40;99.90;;;;;;4983236;28;20039;-79
2023/07/02 12:03:49;;;;;;;13.73;9.43;;;23.60;99.90;;;;;;4982267;28;20575;-78
2023/07/02 12:06:15;;;;;;;12.98;8.85;;;23.70;99.90;;;;;;4980307;28;20053;-79
2023/07/02 12:08:40;;;;;;;13.45;9.00;;;24.10;99.90;;;;;;4981401;28;20722;-76
2023/07/02 12:11:07;;;;;;;14.63;8.95;;;24.40;99.90;;;;;;4982205;28;20240;-74
2023/07/02 12:13:32;;;;;;;14.45;9.15;;;24.60;99.90;;;;;;4981652;28;20030;-76
2023/07/02 12:15:58;;;;;;;13.23;9.48;;;24.70;99.90;;;;;;4981727;28;20081;-88
2023/07/02 12:18:23;;;;;;;15.95;9.40;;;25.10;99.90;;;;;;4966511;28;20038;-86
2023/07/02 12:20:49;;;;;;;13.38;9.10;;;25.30;99.90;;;;;;4982400;28;20113;-84
2023/07/02 12:23:14;;;;;;;16.27;9.90;;;25.60;99.90;;;;;;4981024;28;20030;-86
2023/07/02 12:25:40;;;;;;;14.32;9.65;;;25.60;99.90;;;;;;4982994;28;20062;-86
2023/07/02 12:28:06;;;;;;;16.20;10.25;;;25.70;99.90;;;;;;4983315;28;20098;-85
2023/07/02 12:30:32;;;;;;;16.08;10.57;;;26.00;99.90;;;;;;4983157;28;20443;-85
2023/07/02 12:32:57;;;;;;;15.05;10.25;;;26.20;99.90;;;;;;4984730;28;20520;-87
2023/07/02 12:35:23;;;;;;;14.00;9.35;;;26.20;99.90;;;;;;4988047;28;20141;-85
2023/07/02 12:37:51;;;;;;;16.10;10.48;;;26.30;99.90;;;;;;4986273;28;20099;-86
2023/07/02 12:40:18;;;;;;;17.05;10.80;;;26.30;99.90;;;;;;4983868;28;20037;-85
2023/07/02 12:42:45;;;;;;;16.35;10.35;;;26.30;99.90;;;;;;4987293;28;20034;-86
2023/07/02 12:45:11;;;;;;;19.77;11.30;;;26.30;99.90;;;;;;4969137;28;20477;-85